Time;durP1;ratioP1;P1;durP2;ratioP2;P2;SDS_P1;SDS_P2;PMS_P1;PMS_P2;Temp;Humidity;BMP_temperature;BMP_pressure;BME280_temperature;BME280_humidity;BME280_pressure;Samples;Min_cycle;Max_cycle;Signal;HPM_P1;HPM_P2
2021/10/05 00:01:28;;;;;;;37.75;24.83;;;;;;;13.18;100.00;98122.53;5053851;28;20110;-74
2021/10/05 00:03:53;;;;;;;41.03;24.08;;;;;;;13.13;100.00;98124.53;5053151;28;20500;-75
2021/10/05 00:06:19;;;;;;;36.70;24.40;;;;;;;13.10;100.00;98122.41;5052784;28;20025;-73
2021/10/05 00:08:44;;;;;;;43.17;25.33;;;;;;;13.05;100.00;98117.00;5052650;28;20029;-74
2021/10/05 00:11:10;;;;;;;35.63;24.95;;;;;;;13.05;100.00;98111.50;5053058;28;20078;-74
2021/10/05 00:13:36;;;;;;;35.33;24.35;;;;;;;13.01;100.00;98116.81;5053338;28;20021;-74
2021/10/05 00:16:01;;;;;;;38.17;25.98;;;;;;;12.86;100.00;98103.41;5052814;28;20017;-74
2021/10/05 00:18:27;;;;;;;46.95;27.77;;;;;;;12.85;100.00;98102.59;5053378;28;20032;-74
2021/10/05 00:20:52;;;;;;;49.08;26.33;;;;;;;12.83;100.00;98110.31;5053222;28;20498;-73
2021/10/05 00:23:18;;;;;;;61.17;26.92;;;;;;;12.73;100.00;98106.97;5053067;28;20142;-74
2021/10/05 00:25:43;;;;;;;137.60;29.10;;;;;;;12.58;100.00;98097.13;5055880;28;20041;-77
2021/10/05 00:28:09;;;;;;;115.20;28.42;;;;;;;12.50;100.00;98086.81;5060459;28;20080;-76
2021/10/05 00:30:34;;;;;;;101.03;28.55;;;;;;;12.54;100.00;98079.63;5055409;28;20474;-75
2021/10/05 00:33:00;;;;;;;222.60;35.30;;;;;;;12.48;100.00;98067.13;5052616;28;20021;-75
2021/10/05 00:35:28;;;;;;;255.25;37.40;;;;;;;12.52;100.00;98078.31;5051712;28;20114;-75
2021/10/05 00:37:54;;;;;;;150.93;35.08;;;;;;;12.51;100.00;98079.41;5052278;28;20068;-75
2021/10/05 00:40:19;;;;;;;157.90;36.08;;;;;;;12.48;100.00;98080.84;5051933;28;20057;-75
2021/10/05 00:42:45;;;;;;;131.23;35.83;;;;;;;12.54;100.00;98068.66;5052465;28;20025;-75
2021/10/05 00:45:11;;;;;;;212.15;41.58;;;;;;;12.58;100.00;98057.88;5051891;28;20060;-73
2021/10/05 00:47:36;;;;;;;132.18;37.63;;;;;;;12.56;100.00;98047.19;5051981;28;20156;-75
2021/10/05 00:50:03;;;;;;;142.57;36.08;;;;;;;12.56;100.00;98047.19;5051896;28;20025;-75
2021/10/05 00:52:28;;;;;;;246.15;41.72;;;;;;;12.54;100.00;98037.66;5051617;28;20090;-73
2021/10/05 00:54:54;;;;;;;240.43;39.70;;;;;;;12.58;100.00;98034.00;5051619;28;20037;-75
2021/10/05 00:57:19;;;;;;;106.38;38.15;;;;;;;12.54;100.00;98035.72;5051933;28;20037;-74
2021/10/05 00:59:45;;;;;;;213.98;42.67;;;;;;;12.71;100.00;98041.41;5051552;28;20112;-74
2021/10/05 01:02:12;;;;;;;151.82;39.42;;;;;;;12.78;100.00;98039.03;5051385;28;20050;-75
2021/10/05 01:04:39;;;;;;;414.75;47.72;;;;;;;12.85;100.00;98036.69;5051514;28;20029;-75
2021/10/05 01:07:09;;;;;;;321.52;38.67;;;;;;;12.93;100.00;98037.91;5051323;28;20053;-75
2021/10/05 01:09:35;;;;;;;80.65;31.13;;;;;;;12.97;100.00;98029.88;5050022;28;20029;-75
2021/10/05 01:12:01;;;;;;;88.00;32.45;;;;;;;12.99;100.00;98025.69;5051619;28;20037;-73
2021/10/05 01:14:26;;;;;;;69.88;30.33;;;;;;;12.97;100.00;98027.13;5050027;28;20148;-75
2021/10/05 01:16:56;;;;;;;97.53;32.90;;;;;;;13.07;100.00;98024.94;5051292;28;20032;-74
2021/10/05 01:19:21;;;;;;;87.07;30.27;;;;;;;13.13;100.00;98011.94;5051402;28;20075;-75
2021/10/05 01:21:48;;;;;;;63.72;28.92;;;;;;;13.12;100.00;97994.66;5050994;28;20076;-75
2021/10/05 01:24:17;;;;;;;68.72;27.15;;;;;;;13.09;100.00;97997.22;5051127;28;20104;-74
2021/10/05 01:26:43;;;;;;;88.00;29.35;;;;;;;13.10;100.00;97987.84;5051810;28;20032;-74
2021/10/05 01:29:18;;;;;;;67.55;28.05;;;;;;;13.08;100.00;97979.06;5051121;28;20450;-75
2021/10/05 01:31:46;;;;;;;87.43;28.85;;;;;;;13.20;100.00;97990.34;5051399;28;20029;-75
2021/10/05 01:34:13;;;;;;;53.80;29.10;;;;;;;13.09;100.00;97999.97;5050838;28;20025;-74
2021/10/05 01:36:39;;;;;;;73.47;29.90;;;;;;;13.10;100.00;98009.81;5050944;28;20481;-74
2021/10/05 01:39:18;;;;;;;53.67;29.83;;;;;;;13.14;100.00;98016.31;5050817;28;20029;-74
2021/10/05 01:41:44;;;;;;;57.15;28.70;;;;;;;13.14;100.00;98021.81;5051351;28;20120;-74
2021/10/05 01:44:09;;;;;;;128.50;29.92;;;;;;;13.15;100.00;98015.22;5050819;28;20528;-74
2021/10/05 01:46:35;;;;;;;137.15;33.92;;;;;;;13.14;100.00;98022.63;5050411;28;20035;-74
2021/10/05 01:49:00;;;;;;;102.60;32.05;;;;;;;13.18;100.00;98022.81;5050583;28;20066;-74
2021/10/05 01:51:26;;;;;;;75.63;32.08;;;;;;;13.19;100.00;98013.44;5050770;28;20021;-74
2021/10/05 01:53:51;;;;;;;73.70;30.92;;;;;;;13.08;100.00;98012.03;5050695;28;20028;-73
2021/10/05 01:56:16;;;;;;;55.47;28.80;;;;;;;12.97;100.00;98000.47;5050690;28;20124;-74
2021/10/05 01:58:43;;;;;;;39.75;28.85;;;;;;;12.97;100.00;97981.25;5050659;28;20035;-74
2021/10/05 02:01:09;;;;;;;40.22;26.48;;;;;;;12.87;100.00;97979.53;5050437;28;20412;-74
2021/10/05 02:03:34;;;;;;;57.28;29.08;;;;;;;12.93;100.00;97983.00;5051463;28;20108;-74
2021/10/05 02:06:01;;;;;;;52.58;29.13;;;;;;;12.88;100.00;97986.66;5050839;28;20037;-74
2021/10/05 02:08:26;;;;;;;43.40;29.02;;;;;;;12.96;100.00;98009.03;5050772;28;20044;-74
2021/10/05 02:10:52;;;;;;;50.67;30.73;;;;;;;13.00;100.00;97999.06;5050770;28;20465;-74
2021/10/05 02:13:17;;;;;;;45.85;29.70;;;;;;;13.09;100.00;97999.97;5050684;28;20063;-73
2021/10/05 02:15:42;;;;;;;43.13;29.15;;;;;;;13.16;100.00;98001.16;5050347;28;20021;-74
2021/10/05 02:18:08;;;;;;;45.13;29.88;;;;;;;13.13;100.00;97992.72;5050151;28;20021;-74
2021/10/05 02:20:33;;;;;;;47.83;29.90;;;;;;;13.14;100.00;97972.38;5050215;28;20049;-73
2021/10/05 02:22:59;;;;;;;46.42;28.95;;;;;;;13.28;100.00;97981.38;5050588;28;20051;-74
2021/10/05 02:25:25;;;;;;;43.58;28.85;;;;;;;13.31;100.00;97978.78;5050755;28;20124;-74
2021/10/05 02:27:50;;;;;;;48.35;29.63;;;;;;;13.26;100.00;97967.13;5050607;28;20487;-73
2021/10/05 02:30:16;;;;;;;55.10;31.02;;;;;;;13.20;100.00;97944.47;5049167;28;20027;-75
2021/10/05 02:32:41;;;;;;;44.35;30.02;;;;;;;13.13;100.00;97948.78;5050547;28;20029;-74
2021/10/05 02:35:09;;;;;;;51.35;31.67;;;;;;;13.22;100.00;97952.38;5050297;28;20531;-75
2021/10/05 02:37:34;;;;;;;45.15;30.50;;;;;;;13.23;100.00;97932.84;5050386;28;20020;-73
2021/10/05 02:40:06;;;;;;;48.15;31.13;;;;;;;13.19;100.00;97920.06;5050209;28;20371;-73
2021/10/05 02:42:31;;;;;;;53.72;31.77;;;;;;;13.09;100.00;97906.59;5050640;28;20033;-74
2021/10/05 02:44:57;;;;;;;49.28;30.67;;;;;;;13.11;100.00;97896.09;5049843;28;20528;-75
2021/10/05 02:47:23;;;;;;;48.72;30.58;;;;;;;13.09;100.00;97884.63;5050323;28;20060;-74
2021/10/05 02:49:49;;;;;;;46.75;30.42;;;;;;;13.14;100.00;97890.78;5050224;28;20656;-73
2021/10/05 02:52:18;;;;;;;43.00;29.38;;;;;;;13.12;100.00;97879.31;5050266;28;20107;-74
2021/10/05 02:54:46;;;;;;;40.63;29.00;;;;;;;13.14;100.00;97868.81;5050976;28;20035;-73
2021/10/05 02:57:13;;;;;;;43.70;28.83;;;;;;;13.11;100.00;97863.97;5050689;28;20029;-74
2021/10/05 02:59:38;;;;;;;43.03;29.50;;;;;;;13.19;100.00;97867.88;5054080;28;20079;-73
2021/10/05 03:02:04;;;;;;;43.13;28.00;;;;;;;13.24;100.00;97863.06;5054171;28;20533;-74
2021/10/05 03:04:29;;;;;;;44.15;28.42;;;;;;;13.09;100.00;97855.22;5054674;28;20436;-74
2021/10/05 03:06:55;;;;;;;44.42;29.85;;;;;;;13.19;100.00;97854.94;5055193;28;20163;-74
2021/10/05 03:09:20;;;;;;;53.95;33.58;;;;;;;13.08;100.00;97837.13;5054807;28;20126;-73
2021/10/05 03:11:46;;;;;;;108.13;39.00;;;;;;;12.98;100.00;97851.06;5055066;28;20086;-74
2021/10/05 03:14:11;;;;;;;128.65;35.58;;;;;;;12.86;100.00;97848.91;5054075;28;20037;-76
2021/10/05 03:16:37;;;;;;;159.65;35.33;;;;;;;12.84;100.00;97840.16;5052549;28;20086;-74
2021/10/05 03:19:02;;;;;;;219.77;37.28;;;;;;;12.79;100.00;97851.28;5054749;28;20029;-75
2021/10/05 03:21:28;;;;;;;118.97;35.45;;;;;;;12.80;100.00;97858.41;5053944;28;20493;-75
2021/10/05 03:23:53;;;;;;;162.32;34.85;;;;;;;12.81;100.00;97870.19;5055006;28;20029;-74
2021/10/05 03:26:19;;;;;;;77.53;33.13;;;;;;;12.87;100.00;97864.25;5018892;28;20033;-77
2021/10/05 03:28:44;;;;;;;181.35;36.00;;;;;;;12.87;100.00;97868.94;5017605;28;20425;-76
2021/10/05 03:31:11;;;;;;;105.32;33.60;;;;;;;12.89;100.00;97864.75;5013718;28;20026;-74
2021/10/05 03:33:38;;;;;;;83.03;34.70;;;;;;;12.84;100.00;97866.81;5013259;28;20034;-74
2021/10/05 03:36:04;;;;;;;51.25;31.75;;;;;;;12.94;100.00;97865.75;5013385;28;20018;-74
2021/10/05 03:38:30;;;;;;;55.80;30.60;;;;;;;12.96;100.00;97849.78;5013124;28;20025;-74
2021/10/05 03:40:55;;;;;;;49.05;31.48;;;;;;;12.93;100.00;97842.16;5012806;28;20398;-73
2021/10/05 03:43:21;;;;;;;58.55;31.77;;;;;;;12.97;100.00;97845.91;5012624;28;20395;-73
2021/10/05 03:45:46;;;;;;;92.63;34.17;;;;;;;12.95;100.00;97856.38;5013080;28;20029;-73
2021/10/05 03:48:13;;;;;;;107.43;35.47;;;;;;;12.98;100.00;97853.00;5011760;28;20120;-73
2021/10/05 03:50:39;;;;;;;65.13;33.30;;;;;;;13.02;100.00;97843.03;5013020;28;20030;-72
2021/10/05 03:53:05;;;;;;;84.82;35.30;;;;;;;13.07;100.00;97829.16;5012947;28;20021;-72
2021/10/05 03:55:30;;;;;;;61.65;34.30;;;;;;;13.16;100.00;97835.53;5012733;28;20112;-72
2021/10/05 03:57:56;;;;;;;46.75;30.08;;;;;;;13.24;100.00;97837.53;5012794;28;20017;-72
2021/10/05 04:00:21;;;;;;;48.60;31.00;;;;;;;13.31;100.00;97835.94;5012503;28;20030;-73
2021/10/05 04:02:47;;;;;;;44.85;29.58;;;;;;;13.35;100.00;97833.38;5012753;28;20438;-72
2021/10/05 04:05:12;;;;;;;47.80;30.88;;;;;;;13.43;100.00;97834.56;5012656;28;20434;-73
2021/10/05 04:07:37;;;;;;;46.90;30.33;;;;;;;13.45;100.00;97824.03;5012653;28;20025;-74
2021/10/05 04:10:05;;;;;;;47.53;30.40;;;;;;;13.40;100.00;97822.25;5012350;28;20018;-73
2021/10/05 04:12:31;;;;;;;49.13;32.10;;;;;;;13.44;100.00;97823.22;5012901;28;20033;-74
2021/10/05 04:14:57;;;;;;;43.40;29.02;;;;;;;13.46;100.00;97842.16;5012575;28;20088;-71
2021/10/05 04:17:22;;;;;;;48.63;29.90;;;;;;;13.45;100.00;97840.53;5012455;28;20410;-71
2021/10/05 04:19:47;;;;;;;51.95;30.52;;;;;;;13.48;100.00;97840.72;5012210;28;20025;-72
2021/10/05 04:22:13;;;;;;;44.65;29.58;;;;;;;13.49;100.00;97838.78;5012279;28;20030;-71
2021/10/05 04:24:38;;;;;;;44.15;27.30;;;;;;;13.52;100.00;97841.72;5012519;28;20018;-72
2021/10/05 04:27:09;;;;;;;43.22;28.67;;;;;;;13.53;100.00;97845.28;5013029;28;20049;-73
2021/10/05 04:29:36;;;;;;;50.30;29.90;;;;;;;13.50;100.00;97849.44;5012359;28;20065;-74
2021/10/05 04:32:01;;;;;;;39.70;27.10;;;;;;;13.54;100.00;97841.38;5012598;28;20030;-73
2021/10/05 04:34:26;;;;;;;46.88;29.73;;;;;;;13.54;100.00;97839.44;5010713;28;20010;-73
2021/10/05 04:36:52;;;;;;;44.08;29.55;;;;;;;13.53;100.00;97826.84;5012200;28;20026;-74
2021/10/05 04:39:17;;;;;;;42.88;28.92;;;;;;;13.52;100.00;97829.91;5012127;28;20028;-73
2021/10/05 04:41:43;;;;;;;50.15;30.55;;;;;;;13.56;100.00;97839.97;5012854;28;20525;-73
2021/10/05 04:44:08;;;;;;;43.00;29.10;;;;;;;13.52;100.00;97836.22;5027077;28;20025;-76
2021/10/05 04:46:33;;;;;;;47.55;30.27;;;;;;;13.51;100.00;97842.00;5044943;28;20017;-74
2021/10/05 04:48:59;;;;;;;51.65;31.48;;;;;;;13.49;100.00;97842.34;5044964;28;20120;-73
2021/10/05 04:51:24;;;;;;;46.85;29.98;;;;;;;13.59;100.00;97835.75;5042895;28;20120;-72
2021/10/05 04:53:49;;;;;;;45.65;29.27;;;;;;;13.56;100.00;97831.72;5039024;28;20029;-73
2021/10/05 04:56:15;;;;;;;42.45;28.10;;;;;;;13.49;100.00;97836.84;5040268;28;20441;-73
2021/10/05 04:58:40;;;;;;;37.58;26.35;;;;;;;13.44;100.00;97836.97;5040052;28;20037;-72
2021/10/05 05:01:06;;;;;;;37.90;27.30;;;;;;;13.43;100.00;97840.03;5039329;28;20022;-73
2021/10/05 05:03:31;;;;;;;35.95;25.33;;;;;;;13.49;100.00;97836.84;5040767;28;20108;-73
2021/10/05 05:05:57;;;;;;;33.88;24.05;;;;;;;13.51;100.00;97831.03;5041091;28;20026;-73
2021/10/05 05:08:22;;;;;;;37.83;26.08;;;;;;;13.41;100.00;97823.88;5038904;28;20030;-73
2021/10/05 05:10:47;;;;;;;38.33;26.88;;;;;;;13.39;100.00;97823.38;5036290;28;20453;-73
2021/10/05 05:13:13;;;;;;;36.17;25.85;;;;;;;13.34;100.00;97818.81;5041713;28;20029;-75
2021/10/05 05:15:39;;;;;;;38.60;24.88;;;;;;;13.27;100.00;97823.97;5038595;28;20033;-73
2021/10/05 05:18:04;;;;;;;38.25;25.70;;;;;;;13.32;100.00;97820.28;5038921;28;20745;-73
2021/10/05 05:20:30;;;;;;;35.17;25.13;;;;;;;13.33;100.00;97822.72;5038314;28;20045;-72
2021/10/05 05:22:55;;;;;;;38.90;26.25;;;;;;;13.29;100.00;97818.97;5033423;28;20033;-72
2021/10/05 05:25:22;;;;;;;47.22;30.42;;;;;;;13.26;100.00;97829.78;5030215;28;20029;-73
2021/10/05 05:27:48;;;;;;;44.67;29.23;;;;;;;13.13;100.00;97811.44;5029782;28;20026;-70
2021/10/05 05:30:13;;;;;;;44.20;28.77;;;;;;;13.15;100.00;97817.47;5030460;28;20017;-71
2021/10/05 05:32:39;;;;;;;47.15;30.40;;;;;;;13.18;100.00;97819.56;5030399;28;20504;-71
2021/10/05 05:35:04;;;;;;;47.72;29.35;;;;;;;13.29;100.00;97823.66;5030006;28;20478;-71
2021/10/05 05:37:30;;;;;;;51.30;30.17;;;;;;;13.23;100.00;97808.44;5031080;28;20009;-74
2021/10/05 05:39:55;;;;;;;45.78;29.63;;;;;;;13.36;100.00;97835.00;5030818;28;20429;-71
2021/10/05 05:42:21;;;;;;;47.13;29.30;;;;;;;13.34;100.00;97851.78;5030922;28;20508;-74
2021/10/05 05:44:46;;;;;;;51.55;31.83;;;;;;;13.23;100.00;97860.63;5034015;28;20040;-73
2021/10/05 05:47:12;;;;;;;43.47;28.05;;;;;;;13.46;100.00;97867.72;5039215;28;20044;-74
2021/10/05 05:49:37;;;;;;;44.45;28.88;;;;;;;13.44;100.00;97861.69;5035433;28;20398;-74
2021/10/05 05:52:03;;;;;;;42.97;28.50;;;;;;;13.54;100.00;97858.69;5032591;28;20025;-75
2021/10/05 05:54:28;;;;;;;45.90;29.70;;;;;;;13.43;100.00;97865.59;5040430;28;20082;-74
2021/10/05 05:56:54;;;;;;;45.08;28.73;;;;;;;13.51;100.00;97856.56;5041591;28;20033;-75
2021/10/05 05:59:19;;;;;;;41.35;26.60;;;;;;;13.67;100.00;97860.53;5039372;28;20021;-73
2021/10/05 06:01:45;;;;;;;41.83;26.70;;;;;;;13.71;100.00;97861.50;5040433;28;20024;-74
2021/10/05 06:04:10;;;;;;;42.67;27.30;;;;;;;13.75;100.00;97851.47;5040714;28;20091;-74
2021/10/05 06:06:36;;;;;;;38.97;26.83;;;;;;;13.94;100.00;97848.47;5038878;28;20033;-73
2021/10/05 06:09:03;;;;;;;41.50;25.67;;;;;;;13.96;100.00;97857.22;5039707;28;20023;-72
2021/10/05 06:11:32;;;;;;;40.28;24.38;;;;;;;14.10;100.00;97865.31;5038943;28;20529;-73
2021/10/05 06:13:57;;;;;;;37.65;24.45;;;;;;;14.05;100.00;97882.81;5040410;28;20029;-74
2021/10/05 06:16:23;;;;;;;38.17;24.33;;;;;;;14.19;100.00;97893.69;5041888;28;20025;-73
2021/10/05 06:18:49;;;;;;;37.60;24.83;;;;;;;13.85;100.00;97894.38;5036701;28;20026;-74
2021/10/05 06:21:14;;;;;;;42.08;24.23;;;;;;;13.56;100.00;97878.44;5031065;28;20045;-74
2021/10/05 06:23:40;;;;;;;36.72;23.40;;;;;;;13.66;100.00;97883.63;5035564;28;20064;-74
2021/10/05 06:26:07;;;;;;;36.40;23.27;;;;;;;13.59;100.00;97890.72;5035565;28;20111;-74
2021/10/05 06:28:33;;;;;;;31.90;23.05;;;;;;;13.66;100.00;97886.38;5040626;28;20104;-74
2021/10/05 06:31:00;;;;;;;33.60;20.90;;;;;;;13.80;100.00;97878.84;5046529;28;20123;-73
2021/10/05 06:33:26;;;;;;;32.58;21.63;;;;;;;14.00;100.00;97874.72;5053222;28;20076;-74
2021/10/05 06:35:51;;;;;;;32.33;21.77;;;;;;;14.21;100.00;97855.66;5054594;28;20029;-75
2021/10/05 06:38:17;;;;;;;29.92;21.65;;;;;;;14.58;100.00;97855.06;5054089;28;20052;-75
2021/10/05 06:40:42;;;;;;;31.63;21.88;;;;;;;14.73;100.00;97845.50;5054475;28;20032;-74
2021/10/05 06:43:09;;;;;;;27.85;19.10;;;;;;;14.84;100.00;97855.88;5054426;28;20029;-74
2021/10/05 06:45:35;;;;;;;26.58;20.23;;;;;;;14.57;100.00;97850.69;5054075;28;20044;-74
2021/10/05 06:48:02;;;;;;;28.05;19.48;;;;;;;14.81;100.00;97853.78;5054473;28;20461;-74
2021/10/05 06:50:30;;;;;;;29.23;21.95;;;;;;;14.78;100.00;97854.44;5054389;28;20034;-75
2021/10/05 06:52:56;;;;;;;30.17;21.45;;;;;;;14.55;100.00;97852.16;5054550;28;20028;-74
2021/10/05 06:55:22;;;;;;;27.50;21.25;;;;;;;15.05;100.00;97858.75;5054228;28;20052;-74
2021/10/05 06:57:48;;;;;;;30.05;20.05;;;;;;;15.08;100.00;97860.06;5054167;28;20017;-74
2021/10/05 07:00:15;;;;;;;26.27;20.08;;;;;;;15.20;100.00;97840.91;5053873;28;20036;-74
2021/10/05 07:02:42;;;;;;;30.25;21.70;;;;;;;15.05;100.00;97846.94;5053969;28;20033;-74
2021/10/05 07:05:08;;;;;;;32.08;23.48;;;;;;;14.85;100.00;97859.44;5053829;28;20312;-74
2021/10/05 07:07:41;;;;;;;41.10;26.55;;;;;;;14.53;100.00;97852.50;5053723;28;20385;-73
2021/10/05 07:10:08;;;;;;;41.15;25.15;;;;;;;14.61;100.00;97861.88;5053746;28;20100;-74
2021/10/05 07:12:35;;;;;;;33.13;25.13;;;;;;;14.85;100.00;97845.66;5053998;28;20064;-73
2021/10/05 07:15:02;;;;;;;39.35;26.20;;;;;;;14.84;100.00;97852.31;5053714;28;20029;-73
2021/10/05 07:17:28;;;;;;;36.50;27.17;;;;;;;14.85;100.00;97860.25;5053650;28;20056;-73
2021/10/05 07:19:53;;;;;;;38.17;25.48;;;;;;;14.96;100.00;97867.06;5053488;28;20425;-73
2021/10/05 07:22:19;;;;;;;46.95;27.85;;;;;;;14.73;100.00;97870.28;5053755;28;20041;-74
2021/10/05 07:24:44;;;;;;;40.03;27.17;;;;;;;14.93;100.00;97867.72;5057272;28;20466;-75
2021/10/05 07:27:10;;;;;;;48.55;30.02;;;;;;;14.98;100.00;97873.03;5055761;28;20032;-75
2021/10/05 07:29:35;;;;;;;43.33;28.13;;;;;;;14.95;100.00;97848.91;5054978;28;20107;-79
2021/10/05 07:32:01;;;;;;;39.97;26.70;;;;;;;14.93;100.00;97831.91;5052171;28;20068;-74
2021/10/05 07:34:26;;;;;;;42.65;27.17;;;;;;;15.07;100.00;97845.47;5053315;28;20111;-73
2021/10/05 07:36:52;;;;;;;45.63;28.58;;;;;;;15.15;100.00;97854.88;5052989;28;20064;-72
2021/10/05 07:39:17;;;;;;;42.45;27.35;;;;;;;15.42;100.00;97862.72;5053163;28;20074;-73
2021/10/05 07:41:43;;;;;;;41.40;28.15;;;;;;;15.40;100.00;97862.25;5053291;28;20393;-74
2021/10/05 07:44:10;;;;;;;44.47;29.25;;;;;;;15.40;100.00;97860.31;5052763;28;20037;-72
2021/10/05 07:46:36;;;;;;;46.08;28.42;;;;;;;16.04;100.00;97857.47;5051641;28;20036;-73
2021/10/05 07:49:02;;;;;;;40.22;27.20;;;;;;;17.32;100.00;97852.09;5053020;28;20466;-73
2021/10/05 07:51:27;;;;;;;42.03;25.88;;;;;;;18.13;100.00;97852.91;5052680;28;20037;-73
2021/10/05 07:53:53;;;;;;;34.75;23.17;;;;;;;19.79;90.71;97845.84;5053512;28;20021;-73
2021/10/05 07:56:18;;;;;;;32.55;23.83;;;;;;;20.54;83.28;97854.03;5053352;28;20021;-74
2021/10/05 07:58:44;;;;;;;39.15;23.77;;;;;;;20.21;84.14;97846.06;5051667;28;20052;-74
2021/10/05 08:01:09;;;;;;;37.08;25.65;;;;;;;20.11;82.32;97852.97;5052956;28;20056;-72
2021/10/05 08:03:35;;;;;;;35.05;25.27;;;;;;;19.56;86.45;97848.41;5052995;28;20056;-72
2021/10/05 08:06:00;;;;;;;31.65;21.30;;;;;;;18.60;91.10;97850.44;5052528;28;20474;-74
2021/10/05 08:08:26;;;;;;;27.92;21.35;;;;;;;18.12;94.81;97836.63;5052586;28;20029;-74
2021/10/05 08:10:51;;;;;;;28.17;21.80;;;;;;;17.90;97.80;97832.38;5052554;28;20036;-75
2021/10/05 08:13:17;;;;;;;24.73;20.23;;;;;;;18.63;95.00;97833.13;5052564;28;20106;-74
2021/10/05 08:15:42;;;;;;;25.75;19.27;;;;;;;19.04;92.56;97836.66;5052488;28;20033;-74
2021/10/05 08:18:08;;;;;;;25.55;17.65;;;;;;;19.14;88.93;97836.94;5052438;28;20040;-76
2021/10/05 08:20:33;;;;;;;21.75;15.82;;;;;;;19.10;89.42;97830.50;5050598;28;20048;-73
2021/10/05 08:22:59;;;;;;;22.30;15.88;;;;;;;19.12;89.68;97835.69;5053136;28;20037;-72
2021/10/05 08:25:25;;;;;;;21.67;15.75;;;;;;;19.25;90.12;97843.59;5051033;28;20061;-76
2021/10/05 08:27:51;;;;;;;25.55;15.25;;;;;;;19.67;86.26;97843.16;5052732;28;20107;-73
2021/10/05 08:30:17;;;;;;;24.35;14.65;;;;;;;19.73;85.84;97842.50;5053740;28;20048;-74
2021/10/05 08:32:44;;;;;;;20.30;15.85;;;;;;;19.10;89.52;97836.06;5053866;28;20470;-73
2021/10/05 08:35:10;;;;;;;19.98;15.10;;;;;;;18.74;92.41;97827.88;5053439;28;20029;-74
2021/10/05 08:37:37;;;;;;;20.25;15.02;;;;;;;18.42;94.76;97846.28;5052194;28;20063;-74
2021/10/05 08:40:05;;;;;;;21.50;14.73;;;;;;;18.20;98.72;97850.34;5052258;28;20063;-74
2021/10/05 08:42:31;;;;;;;28.05;14.77;;;;;;;17.99;100.00;97840.53;5052394;28;20074;-75
2021/10/05 08:44:58;;;;;;;23.25;14.75;;;;;;;17.92;100.00;97835.59;5053055;28;20055;-74
2021/10/05 08:47:24;;;;;;;22.15;16.05;;;;;;;17.69;100.00;97841.94;5052346;28;20524;-74
2021/10/05 08:49:50;;;;;;;21.73;17.20;;;;;;;17.43;100.00;97844.97;5052168;28;20039;-75
2021/10/05 08:52:16;;;;;;;27.35;17.98;;;;;;;17.36;100.00;97853.00;5052416;28;20055;-74
2021/10/05 08:54:42;;;;;;;24.17;16.95;;;;;;;17.47;100.00;97851.44;5052117;28;20520;-74
2021/10/05 08:57:07;;;;;;;26.10;16.85;;;;;;;17.38;100.00;97842.44;5052030;28;20029;-74
2021/10/05 08:59:33;;;;;;;23.90;16.00;;;;;;;17.34;100.00;97836.75;5051941;28;20029;-74
2021/10/05 09:02:11;;;;;;;26.55;17.10;;;;;;;17.31;100.00;97848.50;5051879;28;20025;-74
2021/10/05 09:04:36;;;;;;;27.48;17.63;;;;;;;17.17;100.00;97836.13;5050562;28;20025;-74
2021/10/05 09:07:02;;;;;;;25.38;16.98;;;;;;;17.33;100.00;97848.16;5052124;28;20032;-74
2021/10/05 09:09:27;;;;;;;28.88;17.13;;;;;;;17.37;100.00;97846.31;5051239;28;20485;-75
2021/10/05 09:11:53;;;;;;;23.73;16.73;;;;;;;17.34;100.00;97841.47;5053054;28;20129;-76
2021/10/05 09:14:20;;;;;;;25.92;18.05;;;;;;;17.39;100.00;97838.50;5051212;28;20401;-73
2021/10/05 09:16:45;;;;;;;27.92;15.90;;;;;;;17.59;100.00;97848.72;5053272;28;20025;-74
2021/10/05 09:19:14;;;;;;;23.88;18.52;;;;;;;17.77;100.00;97847.34;5055863;28;20421;-74
2021/10/05 09:21:42;;;;;;;26.42;18.48;;;;;;;17.87;100.00;97844.13;5051581;28;20069;-74
2021/10/05 09:24:11;;;;;;;25.05;17.70;;;;;;;18.03;100.00;97850.59;5050482;28;20025;-73
2021/10/05 09:26:50;;;;;;;28.08;19.98;;;;;;;18.15;100.00;97855.31;5051392;28;20041;-74
2021/10/05 09:29:22;;;;;;;29.23;19.75;;;;;;;17.95;100.00;97857.03;5050890;28;20032;-74
2021/10/05 09:31:53;;;;;;;27.73;20.35;;;;;;;17.90;100.00;97853.69;5051425;28;20091;-74
2021/10/05 09:34:21;;;;;;;26.83;21.17;;;;;;;17.73;100.00;97829.81;5051727;28;20024;-75
2021/10/05 09:36:47;;;;;;;29.83;20.50;;;;;;;17.92;100.00;97818.97;5052494;28;20119;-73
2021/10/05 09:39:12;;;;;;;29.20;21.27;;;;;;;18.06;100.00;97829.72;5052329;28;20040;-74
2021/10/05 09:41:38;;;;;;;26.35;21.17;;;;;;;18.17;100.00;97830.84;5052174;28;20025;-75
2021/10/05 09:44:07;;;;;;;28.00;20.10;;;;;;;18.16;100.00;97834.78;5051729;28;20533;-74
2021/10/05 09:46:33;;;;;;;27.38;20.98;;;;;;;18.06;100.00;97826.94;5051489;28;20385;-75
2021/10/05 09:49:09;;;;;;;28.35;21.48;;;;;;;18.20;100.00;97824.59;5051179;28;20470;-74
2021/10/05 09:51:35;;;;;;;29.30;19.50;;;;;;;18.29;100.00;97800.38;5050945;28;20025;-74
2021/10/05 09:54:01;;;;;;;28.75;20.20;;;;;;;18.71;100.00;97818.28;5051324;28;20021;-74
2021/10/05 09:56:28;;;;;;;22.17;17.75;;;;;;;18.86;100.00;97811.19;5050859;28;20032;-74
2021/10/05 09:58:55;;;;;;;24.80;17.20;;;;;;;18.69;100.00;97808.72;5050783;28;20033;-73
2021/10/05 10:01:23;;;;;;;33.15;17.30;;;;;;;18.50;100.00;97800.25;5051195;28;20036;-74
2021/10/05 10:03:51;;;;;;;28.50;19.40;;;;;;;18.32;100.00;97812.72;5053606;28;20688;-75
2021/10/05 10:06:17;;;;;;;29.30;20.25;;;;;;;18.00;100.00;97818.06;5055187;28;20021;-76
2021/10/05 10:08:50;;;;;;;26.67;20.08;;;;;;;18.06;100.00;97802.84;5054617;28;20495;-75
2021/10/05 10:11:16;;;;;;;24.65;18.83;;;;;;;17.84;100.00;97813.56;5050989;28;20108;-75
2021/10/05 10:13:44;;;;;;;23.75;18.33;;;;;;;17.56;100.00;97811.50;5050838;28;20457;-74
2021/10/05 10:16:10;;;;;;;25.73;18.60;;;;;;;17.26;100.00;97820.28;5051322;28;20505;-73
2021/10/05 10:18:35;;;;;;;27.40;19.95;;;;;;;17.15;100.00;97819.91;5051103;28;20025;-73
2021/10/05 10:21:08;;;;;;;29.38;20.95;;;;;;;16.96;100.00;97834.22;5041841;28;20103;-75
2021/10/05 10:23:36;;;;;;;31.65;21.75;;;;;;;16.71;100.00;97838.03;5040481;28;20033;-72
2021/10/05 10:26:07;;;;;;;35.22;22.83;;;;;;;16.71;100.00;97834.47;5030209;28;20364;-71
2021/10/05 10:28:39;;;;;;;31.85;21.05;;;;;;;16.82;100.00;97808.03;5030149;28;20040;-70
2021/10/05 10:31:08;;;;;;;34.70;22.02;;;;;;;17.01;100.00;97806.38;5030279;28;20049;-71
2021/10/05 10:33:47;;;;;;;32.15;21.20;;;;;;;17.28;100.00;97810.50;5030525;28;20068;-72
2021/10/05 10:36:15;;;;;;;28.70;20.83;;;;;;;17.28;100.00;97812.44;5030373;28;20046;-73
2021/10/05 10:38:45;;;;;;;33.95;22.02;;;;;;;17.53;100.00;97822.41;5030346;28;20036;-75
2021/10/05 10:41:17;;;;;;;28.98;21.17;;;;;;;17.84;100.00;97797.78;5030650;28;20037;-76
2021/10/05 10:43:59;;;;;;;41.90;24.27;;;;;;;18.19;100.00;97796.13;5030520;28;20036;-74
2021/10/05 10:46:29;;;;;;;32.38;20.73;;;;;;;18.55;100.00;97809.09;5030504;28;20033;-74
2021/10/05 10:48:57;;;;;;;27.40;19.83;;;;;;;18.37;100.00;97801.41;5030946;28;20021;-74
2021/10/05 10:51:27;;;;;;;25.98;19.33;;;;;;;18.31;100.00;97791.72;5030745;28;20029;-75
2021/10/05 10:53:57;;;;;;;29.08;19.67;;;;;;;18.68;100.00;97801.56;5031031;28;20194;-74
2021/10/05 10:56:35;;;;;;;31.40;20.55;;;;;;;18.73;100.00;97798.56;5034296;28;20033;-73
2021/10/05 10:59:07;;;;;;;27.15;20.23;;;;;;;18.68;100.00;97802.38;5035354;28;20424;-75
2021/10/05 11:01:35;;;;;;;30.92;20.95;;;;;;;18.79;100.00;97805.47;5037331;28;20057;-74
2021/10/05 11:04:05;;;;;;;35.63;23.10;;;;;;;18.64;100.00;97795.91;5035125;28;20040;-74
2021/10/05 11:06:31;;;;;;;32.03;21.85;;;;;;;18.69;100.00;97814.28;5037303;28;20124;-79